Accueil
METAR-TAF:

METAR-TAF

Aéroports :

Aéroport international Saint-Gall-Altenrhein

Saint-Gall, Suisse

latitude: 47-29-06N, longitude: 009-33-43E, altitude: 398 m

Observation

Le bulletin a été fait il y a 20 minutes, à 22:20 UTC
Vent 3 kt de est/sud-est
Température -2°C
Humidité 100%
Pression 1008 hPa
Visibilité: 3600 m
brume

METAR: LSZR 202220Z AUTO 12003KT 3600 BR NCD M02/M02 Q1008

Heure: 23:40 (22:40 UTC)

Prévision

Le bulletin a été fait il y a 8 heures et 15 minutes, à 14:25 UTC
Prévision valable du 20 à 15 UTC au 20 à 24 UTC
Vent 3 kt de direction variable
Visibilité: 9000 m
Nuages fragmentés à une hauteur de 1700 ft
Evoluant progressivement
du 20 à 17 UTC au 20 à 20 UTC
Nuages fragmentés à une hauteur de 1300 ft
Probabilité 40%
du 20 à 21 UTC au 20 à 24 UTC
Visibilité: 4000 m
brume

TAF: LSZR 201425Z 2015/2024 VRB03KT 9000 BKN017 BECMG 2017/2020 BKN013 PROB40 2021/2024 4000 BR

Observations et prévisions météorologiques de plus de 4000 aéroports (messages METAR et TAF).

Les stations disponibles sont représentées par des disques jaunes et rouges sur la carte.

Passer la souris dessus pour voir le nom de la station.

Cliquer dessus pour voir les observations et prévisions météorologiques.

Pour changer de carte: cliquez sur les boutons verts avec une croix noire pour zoomer, sur le bouton vert avec un tiret pour effectuer un zoom arrière, ou sur les flèches vertes pour les cartes adjacentes.


METAR-TAF: